VOI1082 MMGL-MMMY
Flight info
| Callsign | VOI1082 |
|---|---|
| Flight time | 1h 7m |
| Altitude | 37000 |
| Route | OTOKI1A OTOKI J42 ZCL UT5 SLW SLW1B |
| Aircraft | A320/M-SDE3FGHIRWY/LB1 |
Departure
| Time | 2026-04-28 02:03 |
|---|---|
| Airport | Guadalajara International Airport (MMGL) |
Arrival
| Time | 2026-04-28 03:11 |
|---|---|
| Airport | Monterrey International Airport (MMMY) |
| Time | Latitude | Longitude | Altitude | Speed | Heading |
|---|---|---|---|---|---|
| 2026-04-28 01:33 | 20.52450 | -103.30125 | 5029 ft | 0 kts | 19° |
| 2026-04-28 01:39 | 20.52449 | -103.30125 | 5029 ft | 0 kts | 19° |
| 2026-04-28 01:53 | 20.52448 | -103.30126 | 5029 ft | 2 kts | 19° |
| 2026-04-28 01:53 | 20.52425 | -103.30135 | 5025 ft | 4 kts | 29° |
| 2026-04-28 01:54 | 20.52404 | -103.30152 | 5029 ft | 4 kts | 57° |
| 2026-04-28 01:54 | 20.52398 | -103.30173 | 5026 ft | 1 kts | 109° |
| 2026-04-28 01:54 | 20.52400 | -103.30177 | 5026 ft | 0 kts | 109° |
| 2026-04-28 01:57 | 20.52399 | -103.30176 | 5026 ft | 1 kts | 109° |
| 2026-04-28 01:57 | 20.52396 | -103.30165 | 5023 ft | 3 kts | 109° |
| 2026-04-28 01:58 | 20.52384 | -103.30128 | 5026 ft | 7 kts | 108° |
| 2026-04-28 01:58 | 20.52365 | -103.30066 | 5025 ft | 11 kts | 109° |
| 2026-04-28 01:58 | 20.52347 | -103.30028 | 5029 ft | 6 kts | 139° |
| 2026-04-28 01:58 | 20.52300 | -103.30029 | 5029 ft | 9 kts | 201° |
| 2026-04-28 01:59 | 20.52230 | -103.30058 | 5029 ft | 13 kts | 201° |
| 2026-04-28 01:59 | 20.52174 | -103.30045 | 5028 ft | 10 kts | 121° |
| 2026-04-28 01:59 | 20.52140 | -103.29966 | 5027 ft | 14 kts | 115° |
| 2026-04-28 01:59 | 20.52096 | -103.29863 | 5029 ft | 17 kts | 115° |
| 2026-04-28 02:00 | 20.52046 | -103.29740 | 5029 ft | 20 kts | 115° |
| 2026-04-28 02:00 | 20.51986 | -103.29601 | 5029 ft | 21 kts | 115° |
| 2026-04-28 02:00 | 20.51940 | -103.29534 | 5030 ft | 7 kts | 161° |
| 2026-04-28 02:00 | 20.51899 | -103.29542 | 5028 ft | 6 kts | 206° |
| 2026-04-28 02:01 | 20.51857 | -103.29564 | 5030 ft | 7 kts | 206° |
| 2026-04-28 02:01 | 20.51822 | -103.29602 | 5030 ft | 8 kts | 259° |
| 2026-04-28 02:01 | 20.51832 | -103.29640 | 5030 ft | 9 kts | 295° |
| 2026-04-28 02:01 | 20.51840 | -103.29659 | 5027 ft | 0 kts | 295° |
| 2026-04-28 02:02 | 20.51841 | -103.29661 | 5028 ft | 2 kts | 295° |
| 2026-04-28 02:02 | 20.51862 | -103.29710 | 5029 ft | 31 kts | 294° |
| 2026-04-28 02:02 | 20.52052 | -103.30164 | 5027 ft | 100 kts | 294° |
| 2026-04-28 02:03 | 20.52412 | -103.31024 | 5030 ft | 151 kts | 294° |
| 2026-04-28 02:03 | 20.52889 | -103.32161 | 5241 ft | 177 kts | 293° |
| 2026-04-28 02:03 | 20.53375 | -103.33355 | 6052 ft | 175 kts | 292° |
| 2026-04-28 02:03 | 20.53850 | -103.34551 | 6669 ft | 174 kts | 292° |
| 2026-04-28 02:04 | 20.54330 | -103.35762 | 6990 ft | 184 kts | 292° |
| 2026-04-28 02:04 | 20.54856 | -103.37087 | 7114 ft | 205 kts | 292° |
| 2026-04-28 02:04 | 20.55655 | -103.38439 | 7244 ft | 227 kts | 316° |
| 2026-04-28 02:04 | 20.57131 | -103.39175 | 7395 ft | 256 kts | 351° |
| 2026-04-28 02:05 | 20.58996 | -103.38924 | 7633 ft | 283 kts | 11° |
| 2026-04-28 02:05 | 20.60889 | -103.38285 | 8108 ft | 294 kts | 16° |
| 2026-04-28 02:05 | 20.62840 | -103.37497 | 8737 ft | 299 kts | 18° |
| 2026-04-28 02:05 | 20.64790 | -103.36668 | 9365 ft | 303 kts | 19° |
| 2026-04-28 02:06 | 20.66754 | -103.35842 | 9990 ft | 307 kts | 18° |
| 2026-04-28 02:06 | 20.68817 | -103.35004 | 10185 ft | 328 kts | 19° |
| 2026-04-28 02:06 | 20.71036 | -103.34130 | 10280 ft | 349 kts | 18° |
| 2026-04-28 02:06 | 20.73346 | -103.33236 | 10537 ft | 361 kts | 18° |
| 2026-04-28 02:07 | 20.75732 | -103.32318 | 11018 ft | 366 kts | 18° |
| 2026-04-28 02:07 | 20.78142 | -103.31392 | 11587 ft | 367 kts | 19° |
| 2026-04-28 02:07 | 20.80536 | -103.30474 | 12139 ft | 370 kts | 20° |
| 2026-04-28 02:07 | 20.82997 | -103.29530 | 12700 ft | 373 kts | 20° |
| 2026-04-28 02:08 | 20.85426 | -103.28596 | 13244 ft | 376 kts | 21° |
| 2026-04-28 02:08 | 20.87904 | -103.27641 | 13766 ft | 379 kts | 21° |
| 2026-04-28 02:08 | 20.90403 | -103.26680 | 14278 ft | 382 kts | 21° |
| 2026-04-28 02:08 | 20.92890 | -103.25726 | 14771 ft | 385 kts | 21° |
| 2026-04-28 02:09 | 20.95432 | -103.24751 | 15293 ft | 387 kts | 21° |
| 2026-04-28 02:09 | 20.97982 | -103.23769 | 15815 ft | 390 kts | 21° |
| 2026-04-28 02:09 | 21.00549 | -103.22783 | 16339 ft | 393 kts | 21° |
| 2026-04-28 02:09 | 21.03103 | -103.21802 | 16854 ft | 395 kts | 21° |
| 2026-04-28 02:10 | 21.05711 | -103.20801 | 17375 ft | 398 kts | 21° |
| 2026-04-28 02:10 | 21.08324 | -103.19797 | 17921 ft | 400 kts | 21° |
| 2026-04-28 02:10 | 21.10923 | -103.18795 | 18412 ft | 402 kts | 21° |
| 2026-04-28 02:10 | 21.13575 | -103.17766 | 18872 ft | 405 kts | 21° |
| 2026-04-28 02:11 | 21.16222 | -103.16737 | 19322 ft | 408 kts | 20° |
| 2026-04-28 02:11 | 21.18903 | -103.15698 | 19799 ft | 411 kts | 20° |
| 2026-04-28 02:11 | 21.21608 | -103.14653 | 20276 ft | 414 kts | 19° |
| 2026-04-28 02:11 | 21.24340 | -103.13601 | 20754 ft | 417 kts | 19° |
| 2026-04-28 02:12 | 21.27057 | -103.12553 | 21214 ft | 420 kts | 18° |
| 2026-04-28 02:12 | 21.29828 | -103.11484 | 21676 ft | 423 kts | 18° |
| 2026-04-28 02:12 | 21.32624 | -103.10434 | 22138 ft | 425 kts | 15° |
| 2026-04-28 02:12 | 21.35460 | -103.09655 | 22582 ft | 426 kts | 12° |
| 2026-04-28 02:13 | 21.38369 | -103.08892 | 23024 ft | 429 kts | 12° |
| 2026-04-28 02:13 | 21.41256 | -103.08137 | 23435 ft | 431 kts | 11° |
| 2026-04-28 02:13 | 21.44186 | -103.07374 | 23780 ft | 434 kts | 11° |
| 2026-04-28 02:13 | 21.47129 | -103.06610 | 24125 ft | 436 kts | 11° |
| 2026-04-28 02:14 | 21.50087 | -103.05840 | 24467 ft | 438 kts | 11° |
| 2026-04-28 02:14 | 21.53042 | -103.05069 | 24798 ft | 441 kts | 11° |
| 2026-04-28 02:14 | 21.56037 | -103.04287 | 25129 ft | 443 kts | 11° |
| 2026-04-28 02:14 | 21.59050 | -103.03503 | 25459 ft | 446 kts | 11° |
| 2026-04-28 02:15 | 21.65085 | -103.01926 | 26097 ft | 450 kts | 11° |
| 2026-04-28 02:15 | 21.68149 | -103.01122 | 26407 ft | 453 kts | 11° |
| 2026-04-28 02:15 | 21.71217 | -103.00318 | 26712 ft | 455 kts | 11° |
| 2026-04-28 02:16 | 21.74258 | -102.99524 | 27023 ft | 457 kts | 11° |
| 2026-04-28 02:16 | 21.77372 | -102.98711 | 27336 ft | 459 kts | 11° |
| 2026-04-28 02:16 | 21.80463 | -102.97902 | 27647 ft | 462 kts | 11° |
| 2026-04-28 02:16 | 21.83597 | -102.97081 | 27957 ft | 464 kts | 11° |
| 2026-04-28 02:17 | 21.86753 | -102.96254 | 28271 ft | 467 kts | 11° |
| 2026-04-28 02:17 | 21.89917 | -102.95423 | 28582 ft | 469 kts | 11° |
| 2026-04-28 02:17 | 21.93109 | -102.94586 | 28884 ft | 472 kts | 11° |
| 2026-04-28 02:17 | 21.96266 | -102.93756 | 29212 ft | 473 kts | 11° |
| 2026-04-28 02:18 | 21.99483 | -102.92913 | 29648 ft | 472 kts | 11° |
| 2026-04-28 02:18 | 22.02683 | -102.92080 | 30064 ft | 472 kts | 11° |
| 2026-04-28 02:18 | 22.05832 | -102.91258 | 30490 ft | 469 kts | 11° |
| 2026-04-28 02:18 | 22.09006 | -102.90427 | 30971 ft | 466 kts | 10° |
| 2026-04-28 02:19 | 22.12138 | -102.89603 | 31508 ft | 461 kts | 10° |
| 2026-04-28 02:19 | 22.15249 | -102.88782 | 32078 ft | 456 kts | 10° |
| 2026-04-28 02:19 | 22.18278 | -102.87982 | 32641 ft | 450 kts | 9° |
| 2026-04-28 02:19 | 22.21314 | -102.87179 | 33215 ft | 446 kts | 9° |
| 2026-04-28 02:20 | 22.24333 | -102.86382 | 33775 ft | 441 kts | 9° |
| 2026-04-28 02:20 | 22.27282 | -102.85604 | 34256 ft | 437 kts | 9° |
| 2026-04-28 02:20 | 22.30236 | -102.84827 | 34651 ft | 435 kts | 9° |
| 2026-04-28 02:20 | 22.33176 | -102.84054 | 34999 ft | 434 kts | 9° |
| 2026-04-28 02:21 | 22.36119 | -102.83277 | 35314 ft | 434 kts | 8° |
| 2026-04-28 02:21 | 22.39016 | -102.82511 | 35639 ft | 434 kts | 8° |
| 2026-04-28 02:21 | 22.41947 | -102.81736 | 35945 ft | 433 kts | 8° |
| 2026-04-28 02:21 | 22.44882 | -102.80960 | 36241 ft | 433 kts | 8° |
| 2026-04-28 02:22 | 22.47821 | -102.80185 | 36526 ft | 433 kts | 8° |
| 2026-04-28 02:22 | 22.50745 | -102.79414 | 36775 ft | 433 kts | 8° |
| 2026-04-28 02:22 | 22.53642 | -102.78652 | 36866 ft | 435 kts | 8° |
| 2026-04-28 02:23 | 22.59589 | -102.77088 | 36944 ft | 441 kts | 8° |
| 2026-04-28 02:23 | 22.65572 | -102.75494 | 37022 ft | 442 kts | 8° |
| 2026-04-28 02:24 | 22.71516 | -102.73904 | 37104 ft | 442 kts | 8° |
| 2026-04-28 02:24 | 22.77514 | -102.72316 | 37182 ft | 442 kts | 8° |
| 2026-04-28 02:25 | 22.83459 | -102.70740 | 37232 ft | 443 kts | 8° |
| 2026-04-28 02:25 | 22.89396 | -102.68775 | 37233 ft | 451 kts | 20° |
| 2026-04-28 02:26 | 22.94867 | -102.65363 | 37238 ft | 456 kts | 25° |
| 2026-04-28 02:26 | 23.00333 | -102.61823 | 37193 ft | 456 kts | 25° |
| 2026-04-28 02:27 | 23.05772 | -102.58295 | 37108 ft | 457 kts | 25° |
| 2026-04-28 02:27 | 23.11209 | -102.54760 | 37018 ft | 457 kts | 25° |
| 2026-04-28 02:28 | 23.16680 | -102.51201 | 36931 ft | 457 kts | 25° |
| 2026-04-28 02:28 | 23.22119 | -102.47664 | 36863 ft | 457 kts | 25° |
| 2026-04-28 02:29 | 23.27594 | -102.44096 | 36865 ft | 457 kts | 25° |
| 2026-04-28 02:29 | 23.33028 | -102.40553 | 36861 ft | 457 kts | 25° |
| 2026-04-28 02:30 | 23.38471 | -102.36998 | 36861 ft | 457 kts | 25° |
| 2026-04-28 02:30 | 23.43927 | -102.33433 | 36858 ft | 457 kts | 25° |
| 2026-04-28 02:31 | 23.49377 | -102.29864 | 36858 ft | 457 kts | 25° |
| 2026-04-28 02:31 | 23.54830 | -102.26297 | 36859 ft | 457 kts | 25° |
| 2026-04-28 02:32 | 23.60285 | -102.22725 | 36857 ft | 457 kts | 25° |
| 2026-04-28 02:32 | 23.65713 | -102.19164 | 36860 ft | 457 kts | 25° |
| 2026-04-28 02:33 | 23.71171 | -102.15578 | 36860 ft | 457 kts | 25° |
| 2026-04-28 02:33 | 23.76599 | -102.12009 | 36860 ft | 457 kts | 25° |
| 2026-04-28 02:34 | 23.82022 | -102.08439 | 36855 ft | 457 kts | 25° |
| 2026-04-28 02:34 | 23.87492 | -102.04824 | 36855 ft | 457 kts | 25° |
| 2026-04-28 02:35 | 23.92919 | -102.01246 | 36850 ft | 458 kts | 25° |
| 2026-04-28 02:35 | 23.98377 | -101.97651 | 36845 ft | 458 kts | 25° |
| 2026-04-28 02:36 | 24.03846 | -101.94031 | 36847 ft | 459 kts | 25° |
| 2026-04-28 02:36 | 24.09281 | -101.90426 | 36842 ft | 459 kts | 25° |
| 2026-04-28 02:37 | 24.14773 | -101.86797 | 36842 ft | 460 kts | 25° |
| 2026-04-28 02:37 | 24.20228 | -101.83187 | 36841 ft | 461 kts | 25° |
| 2026-04-28 02:38 | 24.25734 | -101.79536 | 36846 ft | 461 kts | 25° |
| 2026-04-28 02:38 | 24.31212 | -101.75905 | 36849 ft | 462 kts | 25° |
| 2026-04-28 02:39 | 24.36733 | -101.72243 | 36859 ft | 462 kts | 25° |
| 2026-04-28 02:39 | 24.42210 | -101.68597 | 36867 ft | 462 kts | 25° |
| 2026-04-28 02:40 | 24.47715 | -101.64930 | 36874 ft | 462 kts | 25° |
| 2026-04-28 02:40 | 24.53200 | -101.61269 | 36877 ft | 462 kts | 25° |
| 2026-04-28 02:41 | 24.58683 | -101.57624 | 36886 ft | 462 kts | 25° |
| 2026-04-28 02:41 | 24.64186 | -101.53951 | 36891 ft | 462 kts | 25° |
| 2026-04-28 02:42 | 24.69692 | -101.50265 | 36902 ft | 462 kts | 25° |
| 2026-04-28 02:42 | 24.75158 | -101.46594 | 36908 ft | 462 kts | 25° |
| 2026-04-28 02:43 | 24.80620 | -101.42937 | 36917 ft | 462 kts | 24° |
| 2026-04-28 02:43 | 24.86130 | -101.39253 | 36927 ft | 462 kts | 24° |
| 2026-04-28 02:44 | 24.91591 | -101.35596 | 36936 ft | 462 kts | 25° |
| 2026-04-28 02:44 | 24.97079 | -101.31907 | 36942 ft | 462 kts | 24° |
| 2026-04-28 02:45 | 25.02580 | -101.28206 | 36946 ft | 462 kts | 25° |
| 2026-04-28 02:45 | 25.08028 | -101.24531 | 36954 ft | 461 kts | 24° |
| 2026-04-28 02:46 | 25.13523 | -101.20824 | 36961 ft | 461 kts | 24° |
| 2026-04-28 02:46 | 25.18971 | -101.17148 | 36959 ft | 461 kts | 24° |
| 2026-04-28 02:47 | 25.24455 | -101.13441 | 36974 ft | 460 kts | 25° |
| 2026-04-28 02:47 | 25.29888 | -101.09760 | 37013 ft | 458 kts | 25° |
| 2026-04-28 02:48 | 25.35300 | -101.06096 | 36316 ft | 462 kts | 24° |
| 2026-04-28 02:48 | 25.38085 | -101.04218 | 35293 ft | 471 kts | 24° |
| 2026-04-28 02:48 | 25.40900 | -101.02316 | 34505 ft | 474 kts | 25° |
| 2026-04-28 02:48 | 25.43709 | -101.00406 | 33835 ft | 472 kts | 25° |
| 2026-04-28 02:49 | 25.46478 | -100.98518 | 33032 ft | 473 kts | 25° |
| 2026-04-28 02:49 | 25.49195 | -100.96423 | 32196 ft | 482 kts | 35° |
| 2026-04-28 02:49 | 25.51512 | -100.93678 | 31532 ft | 490 kts | 49° |
| 2026-04-28 02:49 | 25.53268 | -100.90402 | 30960 ft | 494 kts | 63° |
| 2026-04-28 02:50 | 25.54340 | -100.86833 | 30396 ft | 495 kts | 77° |
| 2026-04-28 02:50 | 25.54698 | -100.83033 | 29802 ft | 494 kts | 89° |
| 2026-04-28 02:50 | 25.54727 | -100.79234 | 29156 ft | 490 kts | 89° |
| 2026-04-28 02:50 | 25.54749 | -100.75469 | 28569 ft | 486 kts | 89° |
| 2026-04-28 02:51 | 25.54770 | -100.71780 | 28024 ft | 481 kts | 89° |
| 2026-04-28 02:51 | 25.54794 | -100.68075 | 27482 ft | 477 kts | 89° |
| 2026-04-28 02:51 | 25.54809 | -100.65631 | 27135 ft | 474 kts | 89° |
| 2026-04-28 02:51 | 25.54836 | -100.60820 | 26432 ft | 469 kts | 89° |
| 2026-04-28 02:52 | 25.54857 | -100.57222 | 25941 ft | 465 kts | 89° |
| 2026-04-28 02:52 | 25.54880 | -100.53757 | 25449 ft | 461 kts | 89° |
| 2026-04-28 02:52 | 25.54894 | -100.51564 | 25153 ft | 459 kts | 89° |
| 2026-04-28 02:52 | 25.54916 | -100.48074 | 24715 ft | 455 kts | 89° |
| 2026-04-28 02:53 | 25.54939 | -100.44574 | 24239 ft | 449 kts | 89° |
| 2026-04-28 02:53 | 25.54959 | -100.41137 | 23435 ft | 442 kts | 89° |
| 2026-04-28 02:53 | 25.54974 | -100.37781 | 22540 ft | 438 kts | 90° |
| 2026-04-28 02:53 | 25.54986 | -100.34421 | 21693 ft | 432 kts | 90° |
| 2026-04-28 02:54 | 25.54998 | -100.31106 | 21015 ft | 423 kts | 90° |
| 2026-04-28 02:54 | 25.55202 | -100.27948 | 20837 ft | 399 kts | 78° |
| 2026-04-28 02:54 | 25.56052 | -100.25118 | 20363 ft | 384 kts | 61° |
| 2026-04-28 02:54 | 25.57531 | -100.22705 | 19748 ft | 373 kts | 44° |
| 2026-04-28 02:55 | 25.59486 | -100.20872 | 19102 ft | 364 kts | 29° |
| 2026-04-28 02:55 | 25.61607 | -100.19411 | 18409 ft | 360 kts | 28° |
| 2026-04-28 02:55 | 25.63736 | -100.17945 | 17682 ft | 358 kts | 29° |
| 2026-04-28 02:55 | 25.65852 | -100.16478 | 16975 ft | 355 kts | 29° |
| 2026-04-28 02:56 | 25.67912 | -100.15039 | 16648 ft | 343 kts | 29° |
| 2026-04-28 02:56 | 25.69916 | -100.13637 | 16527 ft | 347 kts | 29° |
| 2026-04-28 02:56 | 25.71971 | -100.12202 | 16334 ft | 347 kts | 30° |
| 2026-04-28 02:56 | 25.74025 | -100.10768 | 16132 ft | 347 kts | 30° |
| 2026-04-28 02:57 | 25.76041 | -100.09356 | 15928 ft | 345 kts | 30° |
| 2026-04-28 02:57 | 25.78066 | -100.07938 | 15731 ft | 344 kts | 30° |
| 2026-04-28 02:57 | 25.80096 | -100.06516 | 15527 ft | 342 kts | 30° |
| 2026-04-28 02:57 | 25.82088 | -100.05122 | 15331 ft | 341 kts | 30° |
| 2026-04-28 02:58 | 25.84100 | -100.03715 | 15133 ft | 340 kts | 30° |
| 2026-04-28 02:58 | 25.86104 | -100.02315 | 14882 ft | 340 kts | 30° |
| 2026-04-28 02:58 | 25.88140 | -100.00891 | 14266 ft | 347 kts | 30° |
| 2026-04-28 02:58 | 25.90259 | -99.99828 | 14143 ft | 331 kts | 7° |
| 2026-04-28 02:59 | 25.92462 | -99.99934 | 14023 ft | 309 kts | 337° |
| 2026-04-28 02:59 | 25.94202 | -100.01148 | 13892 ft | 283 kts | 308° |
| 2026-04-28 02:59 | 25.95301 | -100.02870 | 13497 ft | 273 kts | 299° |
| 2026-04-28 02:59 | 25.96312 | -100.04658 | 13186 ft | 271 kts | 299° |
| 2026-04-28 03:00 | 25.97308 | -100.06432 | 12888 ft | 270 kts | 299° |
| 2026-04-28 03:00 | 25.98298 | -100.08194 | 12483 ft | 266 kts | 299° |
| 2026-04-28 03:00 | 25.99269 | -100.09921 | 11955 ft | 266 kts | 300° |
| 2026-04-28 03:00 | 26.00254 | -100.11663 | 11418 ft | 264 kts | 300° |
| 2026-04-28 03:01 | 26.01237 | -100.13390 | 10916 ft | 263 kts | 301° |
| 2026-04-28 03:01 | 26.02213 | -100.15102 | 10429 ft | 261 kts | 301° |
| 2026-04-28 03:01 | 26.03175 | -100.16791 | 9954 ft | 260 kts | 301° |
| 2026-04-28 03:01 | 26.04139 | -100.18488 | 9503 ft | 256 kts | 300° |
| 2026-04-28 03:02 | 26.04678 | -100.20294 | 9288 ft | 239 kts | 270° |
| 2026-04-28 03:02 | 26.04305 | -100.21992 | 9102 ft | 225 kts | 240° |
| 2026-04-28 03:02 | 26.03205 | -100.23201 | 8675 ft | 224 kts | 212° |
| 2026-04-28 03:02 | 26.01870 | -100.24089 | 8297 ft | 221 kts | 211° |
| 2026-04-28 03:03 | 26.00558 | -100.24964 | 7987 ft | 219 kts | 211° |
| 2026-04-28 03:03 | 25.99244 | -100.25843 | 7588 ft | 221 kts | 210° |
| 2026-04-28 03:03 | 25.97941 | -100.26714 | 7208 ft | 219 kts | 210° |
| 2026-04-28 03:03 | 25.96650 | -100.27578 | 6877 ft | 212 kts | 209° |
| 2026-04-28 03:04 | 25.95403 | -100.28415 | 6552 ft | 206 kts | 208° |
| 2026-04-28 03:04 | 25.94187 | -100.29232 | 6219 ft | 203 kts | 208° |
| 2026-04-28 03:04 | 25.92981 | -100.30041 | 5904 ft | 202 kts | 208° |
| 2026-04-28 03:04 | 25.91793 | -100.30837 | 5668 ft | 199 kts | 208° |
| 2026-04-28 03:05 | 25.90522 | -100.31419 | 5622 ft | 196 kts | 181° |
| 2026-04-28 03:05 | 25.89288 | -100.31095 | 5501 ft | 180 kts | 145° |
| 2026-04-28 03:05 | 25.88477 | -100.30069 | 5226 ft | 178 kts | 121° |
| 2026-04-28 03:05 | 25.87840 | -100.28891 | 4971 ft | 177 kts | 121° |
| 2026-04-28 03:06 | 25.87200 | -100.27720 | 4715 ft | 176 kts | 122° |
| 2026-04-28 03:06 | 25.86564 | -100.26564 | 4469 ft | 175 kts | 122° |
| 2026-04-28 03:06 | 25.85930 | -100.25417 | 4218 ft | 173 kts | 122° |
| 2026-04-28 03:06 | 25.85304 | -100.24275 | 3979 ft | 172 kts | 122° |
| 2026-04-28 03:07 | 25.84693 | -100.23160 | 3751 ft | 170 kts | 122° |
| 2026-04-28 03:07 | 25.84081 | -100.22039 | 3512 ft | 168 kts | 121° |
| 2026-04-28 03:07 | 25.83510 | -100.20998 | 3310 ft | 150 kts | 122° |
| 2026-04-28 03:07 | 25.82979 | -100.20037 | 3102 ft | 143 kts | 121° |
| 2026-04-28 03:08 | 25.82466 | -100.19105 | 2911 ft | 140 kts | 121° |
| 2026-04-28 03:08 | 25.81959 | -100.18179 | 2731 ft | 140 kts | 120° |
| 2026-04-28 03:08 | 25.81454 | -100.17249 | 2532 ft | 141 kts | 120° |
| 2026-04-28 03:08 | 25.80942 | -100.16315 | 2341 ft | 141 kts | 119° |
| 2026-04-28 03:09 | 25.80430 | -100.15385 | 2126 ft | 141 kts | 118° |
| 2026-04-28 03:09 | 25.79918 | -100.14465 | 1933 ft | 139 kts | 119° |
| 2026-04-28 03:09 | 25.79420 | -100.13561 | 1736 ft | 138 kts | 119° |
| 2026-04-28 03:09 | 25.78924 | -100.12652 | 1484 ft | 138 kts | 118° |
| 2026-04-28 03:10 | 25.78423 | -100.11735 | 1342 ft | 139 kts | 120° |
| 2026-04-28 03:10 | 25.77957 | -100.10872 | 1281 ft | 110 kts | 123° |
| 2026-04-28 03:10 | 25.77644 | -100.10315 | 1277 ft | 60 kts | 121° |
| 2026-04-28 03:10 | 25.77453 | -100.09959 | 1273 ft | 52 kts | 120° |
| 2026-04-28 03:11 | 25.77296 | -100.09688 | 1267 ft | 18 kts | 125° |
| 2026-04-28 03:11 | 25.77235 | -100.09706 | 1266 ft | 11 kts | 216° |
| 2026-04-28 03:11 | 25.77177 | -100.09750 | 1275 ft | 8 kts | 214° |
| 2026-04-28 03:11 | 25.77148 | -100.09798 | 1267 ft | 8 kts | 270° |
| 2026-04-28 03:12 | 25.77168 | -100.09852 | 1276 ft | 8 kts | 301° |
| 2026-04-28 03:12 | 25.77202 | -100.09911 | 1277 ft | 10 kts | 302° |
| 2026-04-28 03:12 | 25.77243 | -100.09983 | 1271 ft | 12 kts | 302° |
| 2026-04-28 03:12 | 25.77292 | -100.10073 | 1273 ft | 17 kts | 301° |
| 2026-04-28 03:13 | 25.77369 | -100.10211 | 1275 ft | 23 kts | 302° |
| 2026-04-28 03:13 | 25.77457 | -100.10368 | 1277 ft | 24 kts | 302° |
| 2026-04-28 03:13 | 25.77544 | -100.10534 | 1278 ft | 26 kts | 300° |
| 2026-04-28 03:13 | 25.77638 | -100.10704 | 1279 ft | 27 kts | 301° |
| 2026-04-28 03:14 | 25.77738 | -100.10886 | 1280 ft | 28 kts | 301° |
| 2026-04-28 03:14 | 25.77844 | -100.11081 | 1281 ft | 30 kts | 301° |
| 2026-04-28 03:14 | 25.77921 | -100.11219 | 1282 ft | 2 kts | 301° |
| 2026-04-28 03:14 | 25.77920 | -100.11235 | 1281 ft | 2 kts | 240° |
| 2026-04-28 03:15 | 25.77894 | -100.11256 | 1282 ft | 6 kts | 211° |
| 2026-04-28 03:15 | 25.77856 | -100.11282 | 1281 ft | 1 kts | 211° |